createdAt,value
2023-05-22T00:00:10.108Z,73.40
2023-05-22T00:02:58.972Z,73.60
2023-05-22T00:05:26.366Z,74.30
2023-05-22T00:07:54.021Z,75.00
2023-05-22T00:10:21.360Z,74.70
2023-05-22T00:12:49.129Z,75.30
2023-05-22T00:15:16.453Z,76.50
2023-05-22T00:17:44.599Z,75.60
2023-05-22T00:20:12.347Z,75.80
2023-05-22T00:22:39.991Z,75.40
2023-05-22T00:25:07.917Z,75.10
2023-05-22T00:27:35.603Z,75.40
2023-05-22T00:30:03.658Z,75.30
2023-05-22T00:32:31.882Z,75.30
2023-05-22T00:34:59.343Z,75.10
2023-05-22T00:37:27.346Z,75.30
2023-05-22T00:39:54.598Z,75.30
2023-05-22T00:42:23.124Z,75.30
2023-05-22T00:44:50.416Z,75.30
2023-05-22T00:47:18.223Z,75.50
2023-05-22T00:49:46.547Z,75.70
2023-05-22T00:52:15.125Z,75.60
2023-05-22T00:54:43.404Z,75.60
2023-05-22T00:57:11.302Z,76.00
2023-05-22T00:59:38.693Z,76.20
2023-05-22T01:02:07.091Z,77.00
2023-05-22T01:04:35.278Z,77.00
2023-05-22T01:07:03.263Z,77.80
2023-05-22T01:09:30.723Z,78.30
2023-05-22T01:12:01.305Z,78.80
2023-05-22T01:14:38.404Z,78.90
2023-05-22T01:17:23.536Z,79.00
2023-05-22T01:20:29.537Z,78.90
2023-05-22T01:23:10.604Z,79.00
2023-05-22T01:25:40.711Z,79.50
2023-05-22T01:28:29.681Z,79.40
2023-05-22T01:31:09.160Z,79.20
2023-05-22T01:33:45.123Z,78.90
2023-05-22T01:36:16.025Z,78.60
2023-05-22T01:38:44.033Z,78.90
2023-05-22T01:41:12.265Z,79.50
2023-05-22T01:43:40.294Z,79.50
2023-05-22T01:46:09.510Z,79.30
2023-05-22T01:48:37.260Z,79.50
2023-05-22T01:51:29.839Z,79.80
2023-05-22T01:54:07.467Z,79.60
2023-05-22T01:56:46.913Z,79.50
2023-05-22T01:59:16.659Z,79.40
2023-05-22T02:01:44.601Z,79.00
2023-05-22T02:04:14.744Z,79.10
2023-05-22T02:06:44.256Z,79.50
2023-05-22T02:09:13.579Z,79.50
2023-05-22T02:11:42.482Z,79.40
2023-05-22T02:14:12.331Z,79.40
2023-05-22T02:16:40.217Z,79.40
2023-05-22T02:19:07.982Z,80.10
2023-05-22T02:21:37.174Z,80.50
2023-05-22T02:24:05.066Z,80.70
2023-05-22T02:26:32.558Z,80.70
2023-05-22T02:29:01.581Z,80.90
2023-05-22T02:31:29.439Z,80.90
2023-05-22T02:33:58.045Z,81.00
2023-05-22T02:36:26.288Z,81.20
2023-05-22T02:38:55.744Z,81.30
2023-05-22T02:41:23.709Z,81.20
2023-05-22T02:43:51.359Z,81.70
2023-05-22T02:46:18.931Z,81.80
2023-05-22T02:48:47.042Z,81.60
2023-05-22T02:51:14.385Z,82.00
2023-05-22T02:53:42.101Z,83.00
2023-05-22T02:56:13.217Z,83.40
2023-05-22T02:58:41.147Z,83.70
2023-05-22T03:01:10.478Z,83.80
2023-05-22T03:03:38.351Z,84.30
2023-05-22T03:06:06.350Z,83.80
2023-05-22T03:08:34.922Z,83.80
2023-05-22T03:11:02.996Z,85.00
2023-05-22T03:13:30.600Z,84.40
2023-05-22T03:15:59.790Z,84.60
2023-05-22T03:18:28.004Z,84.70
2023-05-22T03:20:56.328Z,85.30
2023-05-22T03:23:25.450Z,85.50
2023-05-22T03:25:53.293Z,85.60
2023-05-22T03:28:22.160Z,85.20
2023-05-22T03:30:49.778Z,85.30
2023-05-22T03:33:22.560Z,86.20
2023-05-22T03:35:50.223Z,86.30
2023-05-22T03:38:17.785Z,85.60
2023-05-22T03:40:45.431Z,85.60
2023-05-22T03:43:13.237Z,84.10
2023-05-22T03:45:40.679Z,84.60
2023-05-22T03:48:10.675Z,84.40
2023-05-22T03:50:38.436Z,84.30
2023-05-22T03:53:06.803Z,84.00
2023-05-22T03:55:34.332Z,82.90
2023-05-22T03:58:01.821Z,81.70
2023-05-22T04:00:29.128Z,81.10
2023-05-22T04:02:58.808Z,79.80
2023-05-22T04:05:26.599Z,79.40
2023-05-22T04:07:54.282Z,79.10
2023-05-22T04:10:23.574Z,78.60
2023-05-22T04:12:51.375Z,78.00
2023-05-22T04:15:18.706Z,77.30
2023-05-22T04:17:47.459Z,77.00
2023-05-22T04:20:14.942Z,76.90
2023-05-22T04:22:42.508Z,77.00
2023-05-22T04:25:10.371Z,76.90
2023-05-22T04:27:38.110Z,76.50
2023-05-22T04:30:07.539Z,76.20
2023-05-22T04:32:36.445Z,74.40
2023-05-22T04:35:03.989Z,73.00
2023-05-22T04:37:32.046Z,73.50
2023-05-22T04:40:03.284Z,73.00
2023-05-22T04:42:34.556Z,73.50
2023-05-22T04:45:01.854Z,73.70
2023-05-22T04:47:31.988Z,73.50
2023-05-22T04:50:04.927Z,73.10
2023-05-22T04:52:32.653Z,73.50
2023-05-22T04:55:01.134Z,73.30
2023-05-22T04:57:29.876Z,73.50
2023-05-22T04:59:57.578Z,72.80
2023-05-22T05:02:25.512Z,72.90
2023-05-22T05:04:53.259Z,74.10
2023-05-22T05:07:21.695Z,73.80
2023-05-22T05:09:49.247Z,73.80
2023-05-22T05:12:17.335Z,74.50
2023-05-22T05:14:44.788Z,73.90
2023-05-22T05:17:15.790Z,74.20
2023-05-22T05:19:43.274Z,73.40
2023-05-22T05:22:11.268Z,73.40
2023-05-22T05:24:38.717Z,73.90
2023-05-22T05:27:06.403Z,74.20
2023-05-22T05:29:33.949Z,73.10
2023-05-22T05:32:07.562Z,72.80
2023-05-22T05:35:01.217Z,72.60
2023-05-22T05:37:41.992Z,71.70
2023-05-22T05:40:09.819Z,70.30
2023-05-22T05:42:41.447Z,70.60
2023-05-22T05:45:10.970Z,70.10
2023-05-22T05:47:38.609Z,69.60
2023-05-22T05:50:07.212Z,69.20
2023-05-22T05:52:36.287Z,68.20
2023-05-22T05:55:10.139Z,66.50
2023-05-22T05:57:38.580Z,65.00
2023-05-22T06:00:11.736Z,66.20
2023-05-22T06:02:43.721Z,65.40
2023-05-22T06:05:24.542Z,64.70
2023-05-22T06:08:00.280Z,64.80
2023-05-22T06:25:26.140Z,63.40
2023-05-22T06:27:54.108Z,59.00
2023-05-22T06:30:38.391Z,58.50
2023-05-22T06:33:10.389Z,58.00
2023-05-22T06:35:38.049Z,57.60
2023-05-22T06:38:06.159Z,57.30
2023-05-22T06:40:34.112Z,57.40
2023-05-22T06:43:12.559Z,56.50
2023-05-22T06:45:52.442Z,56.90
2023-05-22T06:48:38.884Z,58.00
2023-05-22T06:51:15.125Z,57.90
2023-05-22T06:53:43.096Z,56.90
2023-05-22T06:56:18.454Z,56.80
2023-05-22T06:58:54.121Z,55.90
2023-05-22T07:01:24.647Z,57.40
2023-05-22T07:04:09.758Z,55.10
2023-05-22T07:06:50.132Z,55.00
2023-05-22T07:09:19.132Z,55.70
2023-05-22T07:11:49.169Z,56.80
2023-05-22T07:14:18.183Z,58.00
2023-05-22T07:16:46.396Z,57.00
2023-05-22T07:19:19.402Z,56.40
2023-05-22T07:21:46.950Z,55.10
2023-05-22T07:24:18.396Z,55.10
2023-05-22T07:26:46.746Z,54.10
2023-05-22T07:29:15.038Z,54.80
2023-05-22T07:31:42.761Z,57.10
2023-05-22T07:34:11.557Z,55.20
2023-05-22T07:36:39.089Z,54.30
2023-05-22T07:39:09.846Z,56.60
2023-05-22T07:41:41.184Z,54.50
2023-05-22T07:44:12.333Z,53.90
2023-05-22T07:46:41.383Z,54.90
2023-05-22T07:49:19.623Z,54.20
2023-05-22T07:51:47.567Z,54.90
2023-05-22T07:54:18.165Z,56.40
2023-05-22T07:56:49.648Z,53.00
2023-05-22T07:59:19.778Z,52.30
2023-05-22T08:01:47.251Z,50.60
2023-05-22T08:04:15.250Z,55.50
2023-05-22T08:06:44.401Z,53.10
2023-05-22T08:09:12.279Z,50.10
2023-05-22T08:11:42.195Z,50.70
2023-05-22T08:14:10.152Z,55.20
2023-05-22T08:16:37.759Z,54.60
2023-05-22T08:19:07.328Z,54.30
2023-05-22T08:21:35.962Z,52.80
2023-05-22T08:24:03.780Z,51.90
2023-05-22T08:26:33.251Z,54.30
2023-05-22T08:29:01.372Z,53.70
2023-05-22T08:31:29.478Z,52.70
2023-05-22T08:34:03.227Z,51.70
2023-05-22T08:36:31.745Z,53.00
2023-05-22T08:38:59.815Z,52.50
2023-05-22T08:41:28.065Z,47.80
2023-05-22T08:43:55.887Z,54.30
2023-05-22T08:46:26.532Z,48.10
2023-05-22T08:48:57.390Z,50.10
2023-05-22T08:51:31.452Z,52.60
2023-05-22T08:54:00.574Z,48.50
2023-05-22T08:56:29.571Z,49.10
2023-05-22T08:58:59.920Z,46.20
2023-05-22T09:01:29.459Z,50.90
2023-05-22T09:04:02.118Z,47.60
2023-05-22T09:06:30.136Z,48.80
2023-05-22T09:08:59.147Z,47.60
2023-05-22T09:11:26.667Z,47.00
2023-05-22T09:14:07.593Z,49.10
2023-05-22T09:16:47.678Z,48.40
2023-05-22T09:19:16.027Z,48.30
2023-05-22T09:21:44.621Z,47.20
2023-05-22T09:24:12.547Z,47.60
2023-05-22T09:26:40.721Z,48.90
2023-05-22T09:29:09.006Z,48.10
2023-05-22T09:31:43.824Z,48.00
2023-05-22T09:34:17.641Z,47.90
2023-05-22T09:36:44.992Z,46.70
2023-05-22T09:39:12.887Z,46.40
2023-05-22T09:41:40.419Z,45.50
2023-05-22T09:44:15.445Z,47.30
2023-05-22T09:46:45.681Z,47.80
2023-05-22T09:49:16.069Z,46.50
2023-05-22T09:51:48.223Z,46.20
2023-05-22T09:54:16.322Z,46.70
2023-05-22T09:56:44.839Z,46.60
2023-05-22T09:59:13.923Z,47.90
2023-05-22T10:01:42.899Z,48.70
2023-05-22T10:04:16.479Z,44.90
2023-05-22T10:06:50.237Z,46.30
2023-05-22T10:09:23.562Z,48.20
2023-05-22T10:11:53.410Z,45.10
2023-05-22T10:14:21.441Z,45.80
2023-05-22T10:16:48.979Z,45.00
2023-05-22T10:19:17.929Z,47.40
2023-05-22T10:21:47.362Z,49.10
2023-05-22T10:24:16.148Z,45.30
2023-05-22T10:26:44.380Z,47.00
2023-05-22T10:29:18.709Z,48.20
2023-05-22T10:31:55.779Z,48.90
2023-05-22T10:34:42.489Z,46.70
2023-05-22T10:37:36.052Z,46.10
2023-05-22T10:40:10.710Z,48.70
2023-05-22T10:42:38.692Z,46.00
2023-05-22T10:45:10.861Z,45.70
2023-05-22T10:47:38.255Z,47.60
2023-05-22T10:50:11.124Z,46.20
2023-05-22T10:52:40.010Z,48.70
2023-05-22T10:55:09.775Z,48.80
2023-05-22T10:57:40.709Z,48.60
2023-05-22T11:00:16.212Z,47.10
2023-05-22T11:02:47.320Z,44.80
2023-05-22T11:05:22.883Z,46.40
2023-05-22T11:07:50.254Z,45.00
2023-05-22T11:10:27.651Z,45.40
2023-05-22T11:13:12.170Z,45.50
2023-05-22T11:15:45.639Z,45.20
2023-05-22T11:18:14.647Z,46.30
2023-05-22T11:20:43.409Z,44.30
2023-05-22T11:23:11.722Z,47.30
2023-05-22T11:25:41.543Z,44.50
2023-05-22T11:28:10.804Z,43.50
2023-05-22T11:30:38.974Z,46.10
2023-05-22T11:33:06.827Z,44.70
2023-05-22T11:35:34.894Z,41.60
2023-05-22T11:38:06.338Z,43.00
2023-05-22T11:40:34.094Z,44.40
2023-05-22T11:43:01.868Z,43.40
2023-05-22T11:45:29.424Z,45.30
2023-05-22T11:47:57.074Z,44.10
2023-05-22T11:50:40.108Z,44.60
2023-05-22T11:53:10.964Z,44.30
2023-05-22T11:55:38.479Z,44.00
2023-05-22T11:58:05.820Z,44.40
2023-05-22T12:00:33.557Z,44.10
2023-05-22T12:03:01.022Z,44.20
2023-05-22T12:05:31.547Z,43.90
2023-05-22T12:07:59.045Z,44.60
2023-05-22T12:10:26.709Z,44.40
2023-05-22T12:12:54.983Z,42.60
2023-05-22T12:15:22.575Z,43.30
2023-05-22T12:17:50.083Z,42.30
2023-05-22T12:20:17.967Z,41.60
2023-05-22T12:22:45.411Z,42.90
2023-05-22T12:25:16.544Z,45.10
2023-05-22T12:27:47.938Z,44.10
2023-05-22T12:30:16.293Z,44.50
2023-05-22T12:32:50.718Z,44.60
2023-05-22T12:35:19.322Z,44.60
2023-05-22T12:37:51.250Z,44.70
2023-05-22T12:40:19.594Z,43.80
2023-05-22T12:42:48.688Z,44.00
2023-05-22T12:45:18.113Z,45.40
2023-05-22T12:47:46.274Z,44.90
2023-05-22T12:50:14.690Z,44.30
2023-05-22T12:52:42.219Z,44.50
2023-05-22T12:55:11.781Z,43.40
2023-05-22T12:57:39.217Z,44.50
2023-05-22T13:00:07.824Z,43.50
2023-05-22T13:02:35.791Z,43.10
2023-05-22T13:05:03.994Z,42.90
2023-05-22T13:07:32.694Z,43.90
2023-05-22T13:10:00.660Z,42.40
2023-05-22T13:12:28.420Z,44.50
2023-05-22T13:14:56.626Z,44.60
2023-05-22T13:17:24.507Z,43.50
2023-05-22T13:19:55.050Z,42.80
2023-05-22T13:22:23.834Z,42.80
2023-05-22T13:24:52.422Z,43.40
2023-05-22T13:27:19.961Z,42.60
2023-05-22T13:29:47.840Z,45.00
2023-05-22T13:32:15.914Z,44.30
2023-05-22T13:34:43.741Z,44.20
2023-05-22T13:37:12.122Z,44.90
2023-05-22T13:39:40.066Z,44.20
2023-05-22T13:42:07.640Z,43.60
2023-05-22T13:44:35.509Z,43.10
2023-05-22T13:47:03.076Z,43.30
2023-05-22T13:49:30.870Z,42.30
2023-05-22T13:51:58.381Z,43.40
2023-05-22T13:54:26.530Z,40.80
2023-05-22T13:56:54.075Z,42.40
2023-05-22T13:59:21.808Z,42.20
2023-05-22T14:01:49.252Z,42.90
2023-05-22T14:04:17.039Z,44.70
2023-05-22T14:06:44.753Z,43.60
2023-05-22T14:09:12.676Z,43.70
2023-05-22T14:11:40.505Z,43.40
2023-05-22T14:14:09.332Z,42.90
2023-05-22T14:16:36.814Z,43.90
2023-05-22T14:19:04.955Z,44.00
2023-05-22T14:21:33.151Z,43.90
2023-05-22T14:24:02.554Z,39.70
2023-05-22T14:26:30.193Z,39.30
2023-05-22T14:28:58.211Z,37.90
2023-05-22T14:31:29.320Z,35.00
2023-05-22T14:33:57.320Z,33.50
2023-05-22T14:36:24.906Z,30.80
2023-05-22T14:41:24.761Z,30.30
2023-05-22T14:43:52.718Z,30.00
2023-05-22T14:46:20.489Z,31.20
2023-05-22T14:53:47.833Z,31.90
2023-05-22T14:56:15.287Z,29.10
2023-05-22T14:58:43.067Z,29.10
2023-05-22T15:01:10.705Z,28.50
2023-05-22T15:03:38.630Z,28.40
2023-05-22T15:06:06.472Z,29.00
2023-05-22T15:08:34.192Z,29.00
2023-05-22T15:11:01.867Z,28.60
2023-05-22T15:13:29.555Z,28.60
2023-05-22T15:15:58.453Z,29.10
2023-05-22T15:18:27.321Z,29.50
2023-05-22T15:20:55.099Z,30.00
2023-05-22T15:23:25.447Z,29.60
2023-05-22T15:25:54.133Z,29.40
2023-05-22T15:28:22.510Z,29.70
2023-05-22T15:30:50.087Z,30.10
2023-05-22T15:33:18.084Z,29.80
2023-05-22T15:35:47.378Z,30.00
2023-05-22T15:38:16.121Z,30.00
2023-05-22T15:40:44.391Z,30.20
2023-05-22T15:43:12.344Z,29.60
2023-05-22T15:45:40.443Z,28.40
2023-05-22T15:48:08.681Z,27.90
2023-05-22T15:50:36.347Z,28.00
2023-05-22T15:53:04.119Z,27.90
2023-05-22T15:55:31.572Z,28.30
2023-05-22T15:57:59.774Z,27.90
2023-05-22T16:00:27.787Z,27.50
2023-05-22T16:02:55.603Z,27.30
2023-05-22T16:05:23.350Z,27.40
2023-05-22T16:07:51.147Z,28.10
2023-05-22T16:10:18.872Z,27.80
2023-05-22T16:12:46.808Z,27.60
2023-05-22T16:15:14.345Z,27.90
2023-05-22T16:17:42.281Z,27.50
2023-05-22T16:20:10.146Z,27.60
2023-05-22T16:22:48.177Z,27.20
2023-05-22T16:25:17.431Z,28.30
2023-05-22T16:27:45.668Z,27.50
2023-05-22T16:30:16.842Z,28.20
2023-05-22T16:32:48.440Z,28.00
2023-05-22T16:35:16.565Z,28.40
2023-05-22T16:37:44.396Z,28.30
2023-05-22T16:40:12.180Z,28.60
2023-05-22T16:42:40.218Z,28.70
2023-05-22T16:45:08.175Z,28.80
2023-05-22T16:47:36.262Z,29.80
2023-05-22T16:50:04.167Z,29.30
2023-05-22T16:52:33.192Z,28.80
2023-05-22T16:55:03.839Z,29.80
2023-05-22T16:57:31.566Z,29.70
2023-05-22T16:59:59.428Z,29.10
2023-05-22T17:02:27.315Z,29.40
2023-05-22T17:04:54.928Z,29.20
2023-05-22T17:07:23.553Z,29.70
2023-05-22T17:09:51.341Z,31.60
2023-05-22T17:12:19.169Z,32.00
2023-05-22T17:14:47.079Z,33.50
2023-05-22T17:17:14.916Z,33.40
2023-05-22T17:19:42.468Z,32.80
2023-05-22T17:22:10.328Z,32.30
2023-05-22T17:24:37.822Z,31.20
2023-05-22T17:27:06.796Z,32.10
2023-05-22T17:29:34.672Z,33.50
2023-05-22T17:32:04.948Z,32.80
2023-05-22T17:34:33.681Z,33.50
2023-05-22T17:37:01.465Z,32.00
2023-05-22T17:39:29.890Z,32.60
2023-05-22T17:41:59.672Z,32.80
2023-05-22T17:44:28.059Z,33.70
2023-05-22T17:46:56.022Z,35.80
2023-05-22T17:49:23.619Z,38.10
2023-05-22T17:51:51.409Z,38.50
2023-05-22T17:54:18.936Z,40.30
2023-05-22T17:56:46.943Z,41.30
2023-05-22T17:59:14.646Z,41.70
2023-05-22T18:01:42.435Z,42.20
2023-05-22T18:04:11.351Z,42.80
2023-05-22T18:06:39.176Z,44.30
2023-05-22T18:09:07.934Z,44.50
2023-05-22T18:11:35.768Z,45.40
2023-05-22T18:14:03.797Z,45.30
2023-05-22T18:16:31.651Z,46.10
2023-05-22T18:18:59.311Z,46.60
2023-05-22T18:21:27.117Z,47.50
2023-05-22T18:23:56.056Z,48.10
2023-05-22T18:26:23.924Z,48.60
2023-05-22T18:28:51.503Z,48.90
2023-05-22T18:31:19.356Z,49.90
2023-05-22T18:33:47.419Z,50.00
2023-05-22T18:36:17.281Z,50.70
2023-05-22T18:38:45.253Z,51.40
2023-05-22T18:41:13.681Z,52.00
2023-05-22T18:43:41.615Z,52.80
2023-05-22T18:46:10.592Z,53.40
2023-05-22T18:48:38.691Z,54.30
2023-05-22T18:51:08.526Z,54.50
2023-05-22T18:53:36.227Z,54.60
2023-05-22T18:56:04.192Z,54.80
2023-05-22T18:58:32.089Z,55.20
2023-05-22T19:01:02.022Z,55.90
2023-05-22T19:03:29.610Z,56.10
2023-05-22T19:05:59.123Z,56.40
2023-05-22T19:08:26.888Z,56.20
2023-05-22T19:10:59.971Z,57.00
2023-05-22T19:13:27.475Z,57.30
2023-05-22T19:15:57.343Z,56.80
2023-05-22T19:18:25.342Z,56.90
2023-05-22T19:20:53.160Z,57.50
2023-05-22T19:23:20.738Z,56.90
2023-05-22T19:25:48.930Z,56.90
2023-05-22T19:28:16.443Z,57.70
2023-05-22T19:30:44.999Z,57.30
2023-05-22T19:33:14.855Z,57.90
2023-05-22T19:35:43.012Z,58.20
2023-05-22T19:38:10.761Z,58.20
2023-05-22T19:40:38.811Z,58.60
2023-05-22T19:43:07.181Z,59.20
2023-05-22T19:45:35.171Z,58.90
2023-05-22T19:48:02.684Z,59.10
2023-05-22T19:50:32.399Z,59.10
2023-05-22T19:52:59.877Z,59.50
2023-05-22T19:55:27.897Z,60.00
2023-05-22T19:57:56.975Z,59.80
2023-05-22T20:00:28.523Z,60.20
2023-05-22T20:02:56.377Z,61.10
2023-05-22T20:05:26.110Z,60.90
2023-05-22T20:07:54.355Z,61.10
2023-05-22T20:10:23.888Z,61.40
2023-05-22T20:12:54.252Z,62.10
2023-05-22T20:15:25.151Z,62.50
2023-05-22T20:17:53.707Z,63.20
2023-05-22T20:20:24.690Z,63.10
2023-05-22T20:22:53.913Z,62.10
2023-05-22T20:25:21.979Z,62.00
2023-05-22T20:27:50.550Z,61.50
2023-05-22T20:30:18.496Z,61.60
2023-05-22T20:32:46.936Z,61.80
2023-05-22T20:35:18.753Z,60.80
2023-05-22T20:37:46.770Z,61.20
2023-05-22T20:40:18.091Z,62.20
2023-05-22T20:42:46.254Z,61.70
2023-05-22T20:45:15.097Z,61.20
2023-05-22T20:47:44.145Z,61.40
2023-05-22T20:50:12.227Z,61.50
2023-05-22T20:52:39.731Z,61.60
2023-05-22T20:55:08.714Z,62.00
2023-05-22T20:57:36.426Z,62.10
2023-05-22T21:00:06.581Z,62.50
2023-05-22T21:02:34.153Z,63.50
2023-05-22T21:05:02.262Z,63.40
2023-05-22T21:07:30.200Z,63.10
2023-05-22T21:09:58.238Z,64.00
2023-05-22T21:12:26.287Z,63.80
2023-05-22T21:14:54.333Z,64.00
2023-05-22T21:17:23.395Z,64.50
2023-05-22T21:19:51.257Z,64.90
2023-05-22T21:22:18.790Z,65.10
2023-05-22T21:24:46.753Z,65.30
2023-05-22T21:27:14.584Z,64.80
2023-05-22T21:29:42.342Z,65.00
2023-05-22T21:32:09.924Z,65.10
2023-05-22T21:34:37.934Z,66.00
2023-05-22T21:37:07.906Z,65.50
2023-05-22T21:39:35.964Z,65.80
2023-05-22T21:42:04.216Z,65.90
2023-05-22T21:44:32.316Z,66.40
2023-05-22T21:47:00.012Z,66.60
2023-05-22T21:49:28.112Z,66.70
2023-05-22T21:51:55.959Z,67.40
2023-05-22T21:54:23.896Z,67.10
2023-05-22T21:56:52.572Z,67.10
2023-05-22T21:59:20.369Z,67.80
2023-05-22T22:01:48.349Z,67.00
2023-05-22T22:04:16.292Z,67.70
2023-05-22T22:06:45.391Z,66.50
2023-05-22T22:09:13.368Z,67.00
2023-05-22T22:11:41.141Z,67.20
2023-05-22T22:14:08.956Z,66.80
2023-05-22T22:16:36.633Z,67.00
2023-05-22T22:19:05.118Z,66.50
2023-05-22T22:21:33.850Z,66.90
2023-05-22T22:24:01.650Z,67.40
2023-05-22T22:26:30.207Z,66.60
2023-05-22T22:29:00.184Z,67.00
2023-05-22T22:31:27.815Z,66.40
2023-05-22T22:33:55.591Z,66.70
2023-05-22T22:36:23.414Z,66.70
2023-05-22T22:38:51.306Z,66.70
2023-05-22T22:41:18.756Z,67.80
2023-05-22T22:43:46.504Z,67.60
2023-05-22T22:46:14.216Z,68.30
2023-05-22T22:48:41.982Z,67.10
2023-05-22T22:51:09.716Z,67.50
2023-05-22T22:53:38.442Z,67.80
2023-05-22T22:56:06.125Z,67.40
2023-05-22T22:58:33.976Z,67.80
2023-05-22T23:01:01.710Z,68.10
2023-05-22T23:03:29.596Z,68.50
2023-05-22T23:05:57.951Z,68.70
2023-05-22T23:08:26.178Z,68.70
2023-05-22T23:10:54.176Z,68.10
2023-05-22T23:13:22.004Z,68.20
2023-05-22T23:15:49.775Z,68.20
2023-05-22T23:18:17.786Z,68.60
2023-05-22T23:20:45.472Z,68.40
2023-05-22T23:23:13.322Z,68.60
2023-05-22T23:25:42.033Z,69.00
2023-05-22T23:28:10.096Z,69.30
2023-05-22T23:30:37.650Z,69.40
2023-05-22T23:33:06.212Z,69.70
2023-05-22T23:35:33.964Z,69.90
2023-05-22T23:38:01.754Z,70.10
2023-05-22T23:40:29.348Z,70.40
2023-05-22T23:42:57.108Z,70.80
2023-05-22T23:45:25.028Z,71.80
2023-05-22T23:47:52.830Z,71.40
2023-05-22T23:50:20.399Z,72.10
2023-05-22T23:52:48.473Z,72.10
2023-05-22T23:55:16.332Z,73.10
2023-05-22T23:57:44.122Z,72.90
